createdAt,value
2019-04-25T00:00:36.681Z,0.00
2019-04-25T00:02:39.243Z,0.00
2019-04-25T00:03:39.269Z,0.00
2019-04-25T00:04:39.294Z,0.00
2019-04-25T00:05:42.761Z,0.00
2019-04-25T00:06:39.343Z,0.00
2019-04-25T00:07:39.375Z,0.00
2019-04-25T00:08:39.393Z,0.00
2019-04-25T00:09:39.419Z,0.00
2019-04-25T00:10:39.454Z,0.00
2019-04-25T00:11:39.475Z,0.00
2019-04-25T00:12:43.205Z,0.00
2019-04-25T00:13:41.648Z,0.00
2019-04-25T00:15:38.214Z,0.00
2019-04-25T00:16:37.168Z,0.00
2019-04-25T00:17:38.496Z,0.00
2019-04-25T00:18:38.519Z,0.00
2019-04-25T00:19:38.664Z,0.00
2019-04-25T00:20:37.269Z,0.00
2019-04-25T00:21:37.285Z,0.00
2019-04-25T00:22:37.311Z,0.00
2019-04-25T00:23:37.345Z,0.00
2019-04-25T00:24:37.364Z,0.00
2019-04-25T00:25:44.429Z,0.00
2019-04-25T00:26:40.197Z,0.00
2019-04-25T00:27:37.439Z,0.00
2019-04-25T00:28:37.468Z,0.00
2019-04-25T00:29:37.495Z,0.00
2019-04-25T00:30:37.520Z,0.00
2019-04-25T00:31:37.548Z,0.00
2019-04-25T00:32:37.580Z,0.00
2019-04-25T00:33:37.598Z,0.00
2019-04-25T00:34:37.627Z,0.00
2019-04-25T00:35:37.661Z,0.00
2019-04-25T00:36:39.060Z,0.00
2019-04-25T00:37:37.712Z,0.00
2019-04-25T00:38:37.734Z,0.00
2019-04-25T00:39:37.763Z,0.00
2019-04-25T00:41:44.053Z,0.00
2019-04-25T00:42:37.838Z,0.00
2019-04-25T00:43:37.879Z,0.00
2019-04-25T00:44:37.890Z,0.00
2019-04-25T00:45:37.917Z,0.00
2019-04-25T00:46:37.941Z,0.00
2019-04-25T00:47:37.970Z,0.00
2019-04-25T00:48:42.380Z,0.00
2019-04-25T00:49:38.018Z,0.00
2019-04-25T00:50:42.453Z,0.00
2019-04-25T00:51:38.072Z,0.00
2019-04-25T00:52:38.098Z,0.00
2019-04-25T00:53:38.130Z,0.00
2019-04-25T00:54:38.143Z,0.00
2019-04-25T00:55:38.182Z,0.00
2019-04-25T00:56:38.198Z,0.00
2019-04-25T00:58:25.983Z,0.00
2019-04-25T00:59:25.804Z,0.00
2019-04-25T01:02:15.999Z,0.00
2019-04-25T01:03:17.220Z,0.00
2019-04-25T01:05:02.619Z,0.00
2019-04-25T01:06:03.455Z,0.00
2019-04-25T01:06:58.632Z,0.00
2019-04-25T01:07:58.659Z,0.00
2019-04-25T01:08:58.680Z,0.00
2019-04-25T01:09:58.713Z,0.00
2019-04-25T01:10:58.741Z,0.00
2019-04-25T01:12:00.179Z,0.00
2019-04-25T01:12:58.786Z,0.00
2019-04-25T01:13:58.810Z,0.00
2019-04-25T01:14:58.836Z,0.00
2019-04-25T01:15:58.863Z,0.00
2019-04-25T01:16:58.896Z,0.00
2019-04-25T01:17:58.914Z,0.00
2019-04-25T01:18:59.753Z,0.00
2019-04-25T01:19:58.993Z,0.00
2019-04-25T01:20:58.996Z,0.00
2019-04-25T01:21:59.019Z,0.00
2019-04-25T01:23:01.674Z,0.00
2019-04-25T01:23:59.071Z,0.00
2019-04-25T01:24:59.097Z,0.00
2019-04-25T01:25:59.133Z,0.00
2019-04-25T01:26:59.151Z,0.00
2019-04-25T01:27:59.182Z,0.00
2019-04-25T01:28:59.202Z,0.00
2019-04-25T01:29:59.237Z,0.00
2019-04-25T01:30:59.263Z,0.00
2019-04-25T01:31:59.289Z,0.00
2019-04-25T01:32:59.317Z,0.00
2019-04-25T01:33:59.543Z,0.00
2019-04-25T01:35:00.470Z,0.00
2019-04-25T01:35:59.387Z,0.00
2019-04-25T01:36:59.418Z,0.00
2019-04-25T01:37:59.447Z,0.00
2019-04-25T01:38:59.474Z,0.00
2019-04-25T01:39:59.500Z,0.00
2019-04-25T01:40:59.522Z,0.00
2019-04-25T01:41:59.551Z,0.00
2019-04-25T01:42:59.577Z,0.00
2019-04-25T01:43:59.825Z,0.00
2019-04-25T01:44:59.629Z,0.00
2019-04-25T01:45:59.652Z,0.00
2019-04-25T01:46:59.676Z,0.00
2019-04-25T01:47:59.706Z,0.00
2019-04-25T01:48:59.735Z,0.00
2019-04-25T01:49:59.758Z,0.00
2019-04-25T01:50:59.786Z,0.00
2019-04-25T01:51:59.820Z,0.00
2019-04-25T01:52:59.841Z,0.00
2019-04-25T01:53:59.867Z,0.00
2019-04-25T01:54:59.887Z,0.00
2019-04-25T01:56:04.050Z,0.00
2019-04-25T01:56:59.945Z,0.00
2019-04-25T01:57:59.966Z,0.00
2019-04-25T01:58:59.996Z,0.00
2019-04-25T02:00:00.017Z,0.00
2019-04-25T02:01:00.043Z,0.00
2019-04-25T02:02:00.072Z,0.00
2019-04-25T02:03:00.096Z,0.00
2019-04-25T02:04:03.574Z,0.00
2019-04-25T02:05:00.262Z,0.00
2019-04-25T02:06:00.181Z,0.00
2019-04-25T02:07:00.202Z,0.00
2019-04-25T02:08:00.228Z,0.00
2019-04-25T02:09:00.255Z,0.00
2019-04-25T02:10:00.300Z,0.00
2019-04-25T02:11:00.306Z,0.00
2019-04-25T02:12:00.340Z,0.00
2019-04-25T02:13:00.361Z,0.00
2019-04-25T02:14:00.386Z,0.00
2019-04-25T02:15:00.417Z,0.00
2019-04-25T02:16:00.437Z,0.00
2019-04-25T02:17:00.466Z,0.00
2019-04-25T02:18:00.492Z,0.00
2019-04-25T02:19:00.515Z,0.00
2019-04-25T02:20:00.540Z,0.00
2019-04-25T02:21:01.484Z,0.00
2019-04-25T02:22:00.592Z,0.00
2019-04-25T02:23:00.618Z,0.00
2019-04-25T02:24:00.647Z,0.00
2019-04-25T02:25:00.674Z,0.00
2019-04-25T02:26:13.778Z,0.00
2019-04-25T02:27:00.901Z,0.00
2019-04-25T02:28:02.345Z,0.00
2019-04-25T02:29:00.786Z,0.00
2019-04-25T02:30:01.089Z,0.00
2019-04-25T02:31:03.788Z,0.00
2019-04-25T02:32:04.084Z,0.00
2019-04-25T02:33:04.406Z,0.00
2019-04-25T02:34:03.466Z,0.00
2019-04-25T02:35:03.540Z,0.00
2019-04-25T02:36:03.928Z,0.00
2019-04-25T02:37:04.074Z,0.00
2019-04-25T02:38:02.878Z,0.00
2019-04-25T02:39:03.255Z,0.00
2019-04-25T02:40:02.389Z,0.00
2019-04-25T02:41:03.230Z,0.00
2019-04-25T02:42:02.629Z,0.00
2019-04-25T02:43:03.188Z,0.00
2019-04-25T02:44:05.509Z,0.00
2019-04-25T02:45:03.161Z,0.00
2019-04-25T02:46:02.225Z,0.00
2019-04-25T02:47:03.139Z,0.00
2019-04-25T02:48:01.472Z,0.00
2019-04-25T02:49:03.071Z,0.00
2019-04-25T02:50:05.064Z,0.00
2019-04-25T02:51:01.347Z,0.00
2019-04-25T02:52:03.421Z,0.00
2019-04-25T02:53:01.408Z,0.00
2019-04-25T02:54:02.708Z,0.00
2019-04-25T02:55:02.124Z,0.00
2019-04-25T02:56:01.956Z,0.00
2019-04-25T02:57:02.034Z,0.00
2019-04-25T02:58:04.838Z,0.00
2019-04-25T02:59:03.516Z,0.00
2019-04-25T03:00:02.720Z,0.00
2019-04-25T03:01:10.638Z,0.00
2019-04-25T03:02:03.096Z,0.00
2019-04-25T03:03:02.748Z,0.00
2019-04-25T03:04:04.846Z,0.00
2019-04-25T03:05:03.909Z,0.00
2019-04-25T03:06:02.955Z,0.00
2019-04-25T03:07:02.756Z,0.00
2019-04-25T03:08:02.756Z,0.00
2019-04-25T03:09:02.037Z,0.00
2019-04-25T03:10:02.154Z,0.00
2019-04-25T03:11:04.696Z,0.00
2019-04-25T03:12:01.975Z,0.00
2019-04-25T03:13:04.915Z,0.00
2019-04-25T03:14:02.137Z,0.00
2019-04-25T03:15:02.904Z,0.00
2019-04-25T03:16:03.316Z,0.00
2019-04-25T03:17:05.094Z,0.00
2019-04-25T03:18:02.419Z,0.00
2019-04-25T03:19:02.987Z,0.00
2019-04-25T03:20:06.530Z,0.00
2019-04-25T03:21:05.180Z,0.00
2019-04-25T03:22:05.695Z,0.00
2019-04-25T03:23:05.201Z,0.00
2019-04-25T03:24:05.274Z,0.00
2019-04-25T03:25:04.534Z,0.00
2019-04-25T03:26:04.547Z,0.00
2019-04-25T03:27:03.424Z,0.00
2019-04-25T03:28:04.760Z,0.00
2019-04-25T03:29:04.657Z,0.00
2019-04-25T03:30:03.674Z,0.00
2019-04-25T03:31:08.581Z,0.00
2019-04-25T03:32:05.028Z,0.00
2019-04-25T03:33:04.855Z,0.00
2019-04-25T03:34:07.930Z,0.00
2019-04-25T03:35:04.507Z,0.00
2019-04-25T03:36:03.542Z,0.00
2019-04-25T03:37:05.235Z,0.00
2019-04-25T03:38:04.281Z,0.00
2019-04-25T03:39:04.024Z,4.00
2019-04-25T03:40:04.495Z,4.00
2019-04-25T03:41:04.434Z,4.00
2019-04-25T03:42:04.870Z,0.00
2019-04-25T03:43:04.732Z,4.00
2019-04-25T03:44:04.539Z,4.00
2019-04-25T03:45:04.659Z,8.00
2019-04-25T03:46:04.942Z,4.00
2019-04-25T03:47:05.261Z,8.00
2019-04-25T03:48:05.218Z,8.00
2019-04-25T03:49:04.931Z,12.00
2019-04-25T03:50:05.592Z,12.00
2019-04-25T03:51:05.394Z,12.00
2019-04-25T03:52:05.035Z,16.00
2019-04-25T03:53:04.525Z,16.00
2019-04-25T03:54:04.887Z,24.00
2019-04-25T03:55:05.096Z,24.00
2019-04-25T03:56:05.142Z,24.00
2019-04-25T03:57:05.281Z,28.00
2019-04-25T03:58:05.206Z,36.00
2019-04-25T03:59:05.841Z,44.00
2019-04-25T04:00:05.952Z,48.00
2019-04-25T04:01:06.605Z,52.00
2019-04-25T04:02:05.853Z,64.00
2019-04-25T04:03:05.711Z,72.00
2019-04-25T04:04:05.749Z,80.00
2019-04-25T04:05:04.857Z,88.00
2019-04-25T04:06:05.887Z,104.00
2019-04-25T04:07:06.153Z,116.00
2019-04-25T04:08:04.470Z,128.00
2019-04-25T04:09:04.680Z,144.00
2019-04-25T04:10:04.699Z,160.00
2019-04-25T04:11:05.363Z,180.00
2019-04-25T04:12:05.153Z,200.00
2019-04-25T04:13:05.128Z,220.00
2019-04-25T04:14:04.882Z,240.00
2019-04-25T04:15:04.777Z,268.00
2019-04-25T04:16:05.162Z,288.00
2019-04-25T04:17:05.119Z,316.00
2019-04-25T04:18:05.121Z,340.00
2019-04-25T04:19:04.921Z,368.00
2019-04-25T04:20:04.755Z,396.00
2019-04-25T04:21:03.669Z,424.00
2019-04-25T04:22:03.693Z,448.00
2019-04-25T04:23:03.721Z,480.00
2019-04-25T04:24:04.108Z,508.00
2019-04-25T04:25:03.876Z,540.00
2019-04-25T04:26:03.802Z,572.00
2019-04-25T04:27:06.589Z,600.00
2019-04-25T04:28:03.863Z,636.00
2019-04-25T04:29:04.708Z,668.00
2019-04-25T04:30:04.220Z,700.00
2019-04-25T04:31:03.920Z,732.00
2019-04-25T04:32:03.947Z,768.00
2019-04-25T04:33:03.980Z,800.00
2019-04-25T04:34:04.005Z,836.00
2019-04-25T04:35:04.027Z,868.00
2019-04-25T04:36:04.052Z,904.00
2019-04-25T04:37:04.084Z,936.00
2019-04-25T04:38:04.297Z,968.00
2019-04-25T04:39:04.134Z,1004.00
2019-04-25T04:40:04.152Z,1040.00
2019-04-25T04:41:04.180Z,1072.00
2019-04-25T04:42:04.207Z,1108.00
2019-04-25T04:43:04.486Z,1140.00
2019-04-25T04:44:04.272Z,1172.00
2019-04-25T04:45:04.297Z,1204.00
2019-04-25T04:46:04.315Z,1240.00
2019-04-25T04:47:04.336Z,1272.00
2019-04-25T04:48:04.358Z,1304.00
2019-04-25T04:49:04.386Z,1336.00
2019-04-25T04:50:04.416Z,1372.00
2019-04-25T04:51:04.438Z,1400.00
2019-04-25T04:52:06.490Z,1436.00
2019-04-25T04:53:04.492Z,1464.00
2019-04-25T04:54:04.513Z,1500.00
2019-04-25T04:55:08.355Z,1532.00
2019-04-25T04:56:04.564Z,1560.00
2019-04-25T04:57:16.705Z,1596.00
2019-04-25T04:58:04.617Z,1624.00
2019-04-25T04:59:04.658Z,1656.00
2019-04-25T05:00:04.667Z,1684.00
2019-04-25T05:01:04.700Z,1720.00
2019-04-25T05:02:04.725Z,1748.00
2019-04-25T05:03:04.746Z,1784.00
2019-04-25T05:04:04.775Z,1816.00
2019-04-25T05:05:04.798Z,1844.00
2019-04-25T05:06:04.828Z,1876.00
2019-04-25T05:07:04.852Z,1904.00
2019-04-25T05:08:04.880Z,1940.00
2019-04-25T05:09:04.903Z,1972.00
2019-04-25T05:10:04.928Z,2004.00
2019-04-25T05:11:04.951Z,2032.00
2019-04-25T05:12:04.984Z,2064.00
2019-04-25T05:13:05.008Z,2096.00
2019-04-25T05:14:05.036Z,2120.00
2019-04-25T05:15:05.060Z,2156.00
2019-04-25T05:16:05.084Z,2184.00
2019-04-25T05:17:05.107Z,2212.00
2019-04-25T05:18:05.139Z,2240.00
2019-04-25T05:19:05.158Z,2272.00
2019-04-25T05:20:05.184Z,2304.00
2019-04-25T05:21:05.209Z,2332.00
2019-04-25T05:22:05.241Z,2360.00
2019-04-25T05:23:05.271Z,2392.00
2019-04-25T05:24:05.287Z,2428.00
2019-04-25T05:25:05.320Z,2456.00
2019-04-25T05:26:05.339Z,2492.00
2019-04-25T05:27:05.364Z,2528.00
2019-04-25T05:28:05.473Z,2560.00
2019-04-25T05:29:05.421Z,2600.00
2019-04-25T05:30:05.448Z,2632.00
2019-04-25T05:31:05.474Z,2668.00
2019-04-25T05:32:05.504Z,2708.00
2019-04-25T05:33:05.525Z,2744.00
2019-04-25T05:34:05.572Z,2784.00
2019-04-25T05:35:05.578Z,2828.00
2019-04-25T05:36:05.944Z,2876.00
2019-04-25T05:37:05.627Z,2932.00
2019-04-25T05:38:05.656Z,2996.00
2019-04-25T05:39:05.677Z,3060.00
2019-04-25T05:40:05.739Z,3140.00
2019-04-25T05:41:05.730Z,3224.00
2019-04-25T05:42:07.601Z,3316.00
2019-04-25T05:43:05.785Z,3416.00
2019-04-25T05:44:05.811Z,3524.00
2019-04-25T05:45:05.836Z,3640.00
2019-04-25T05:46:05.862Z,3760.00
2019-04-25T05:47:05.890Z,3892.00
2019-04-25T05:48:06.139Z,4036.00
2019-04-25T05:49:05.943Z,4204.00
2019-04-25T05:50:05.971Z,4396.00
2019-04-25T05:52:33.848Z,4944.00
2019-04-25T05:53:33.664Z,5252.00
2019-04-25T05:54:34.379Z,7084.00
2019-04-25T05:55:34.299Z,10548.00
2019-04-25T05:56:33.955Z,14924.00
2019-04-25T05:57:45.203Z,18528.00
2019-04-25T05:58:33.868Z,20960.00
2019-04-25T05:59:33.866Z,15940.00
2019-04-25T06:00:34.259Z,8500.00
2019-04-25T06:01:35.599Z,6004.00
2019-04-25T06:02:36.645Z,5944.00
2019-04-25T06:03:34.068Z,5956.00
2019-04-25T06:04:37.589Z,6076.00
2019-04-25T06:07:05.662Z,14172.00
2019-04-25T06:08:04.573Z,17120.00
2019-04-25T06:09:04.205Z,20512.00
2019-04-25T06:10:04.171Z,17760.00
2019-04-25T06:11:05.194Z,15708.00
2019-04-25T06:12:04.780Z,14268.00
2019-04-25T06:13:04.234Z,11156.00
2019-04-25T06:14:04.265Z,7684.00
2019-04-25T06:15:04.288Z,6880.00
2019-04-25T06:16:04.342Z,7056.00
2019-04-25T06:17:04.338Z,7612.00
2019-04-25T06:18:04.364Z,9264.00
2019-04-25T06:19:13.634Z,9548.00
2019-04-25T06:20:06.178Z,14736.00
2019-04-25T06:21:04.445Z,19168.00
2019-04-25T06:22:04.475Z,16036.00
2019-04-25T06:23:04.502Z,12600.00
2019-04-25T06:24:04.528Z,8172.00
2019-04-25T06:25:07.990Z,8404.00
2019-04-25T06:26:19.149Z,11096.00
2019-04-25T06:27:04.609Z,13048.00
2019-04-25T06:28:04.643Z,13084.00
2019-04-25T06:29:04.664Z,8692.00
2019-04-25T06:30:04.692Z,12880.00
2019-04-25T06:31:10.035Z,19296.00
2019-04-25T06:32:08.374Z,19648.00
2019-04-25T06:33:04.778Z,19584.00
2019-04-25T06:34:04.812Z,19808.00
2019-04-25T06:35:04.837Z,21504.00
2019-04-25T06:36:04.870Z,30048.00
2019-04-25T06:37:06.244Z,41248.00
2019-04-25T06:38:04.913Z,46752.00
2019-04-25T06:39:04.946Z,46624.00
2019-04-25T06:40:05.159Z,46720.00
2019-04-25T06:41:05.006Z,48128.00
2019-04-25T06:42:05.037Z,49760.00
2019-04-25T06:43:05.060Z,51136.00
2019-04-25T06:44:05.090Z,55936.00
2019-04-25T06:45:05.118Z,56320.00
2019-04-25T06:46:05.145Z,54400.00
2019-04-25T06:47:05.176Z,55360.00
2019-04-25T06:48:05.208Z,55840.00
2019-04-25T06:49:05.235Z,57152.00
2019-04-25T06:50:05.266Z,62752.00
2019-04-25T06:51:05.295Z,63456.00
2019-04-25T06:52:05.322Z,61632.00
2019-04-25T06:53:05.383Z,61696.00
2019-04-25T06:54:05.381Z,62656.00
2019-04-25T06:55:05.414Z,60160.00
2019-04-25T06:56:08.064Z,63648.00
2019-04-25T06:57:08.089Z,64576.00
2019-04-25T06:58:11.672Z,65376.00
2019-04-25T06:59:05.528Z,65216.00
2019-04-25T07:00:05.557Z,65280.00
2019-04-25T07:01:05.591Z,63360.00
2019-04-25T07:02:05.617Z,66752.00
2019-04-25T07:03:05.655Z,56640.00
2019-04-25T07:04:05.682Z,61440.00
2019-04-25T07:05:05.709Z,62304.00
2019-04-25T07:06:05.740Z,64736.00
2019-04-25T07:07:12.016Z,67136.00
2019-04-25T07:08:05.810Z,70304.00
2019-04-25T07:09:05.833Z,72960.00
2019-04-25T07:10:05.935Z,75104.00
2019-04-25T07:11:05.903Z,75488.00
2019-04-25T07:12:05.930Z,74144.00
2019-04-25T07:13:05.959Z,68416.00
2019-04-25T07:14:06.001Z,65408.00
2019-04-25T07:15:06.025Z,69568.00
2019-04-25T07:16:06.062Z,65376.00
2019-04-25T07:17:06.092Z,57344.00
2019-04-25T07:18:06.119Z,55648.00
2019-04-25T07:19:06.152Z,54880.00
2019-04-25T07:20:06.185Z,51488.00
2019-04-25T07:21:06.210Z,51872.00
2019-04-25T07:22:06.243Z,50368.00
2019-04-25T07:23:06.281Z,38432.00
2019-04-25T07:24:06.314Z,46496.00
2019-04-25T07:25:06.340Z,61088.00
2019-04-25T07:26:06.374Z,44352.00
2019-04-25T07:27:06.401Z,26528.00
2019-04-25T07:28:06.436Z,41728.00
2019-04-25T07:29:06.473Z,37472.00
2019-04-25T07:30:06.500Z,27968.00
2019-04-25T07:31:06.534Z,31904.00
2019-04-25T07:32:06.573Z,33056.00
2019-04-25T07:33:06.588Z,34496.00
2019-04-25T07:34:06.621Z,41792.00
2019-04-25T07:35:06.656Z,30496.00
2019-04-25T07:36:06.699Z,30624.00
2019-04-25T07:37:06.712Z,25568.00
2019-04-25T07:38:06.746Z,26880.00
2019-04-25T07:39:10.414Z,38368.00
2019-04-25T07:40:06.808Z,70080.00
2019-04-25T07:41:06.837Z,53024.00
2019-04-25T07:42:06.868Z,49952.00
2019-04-25T07:43:06.897Z,79904.00
2019-04-25T07:44:06.928Z,71680.00
2019-04-25T07:45:06.992Z,73920.00
2019-04-25T07:46:06.991Z,71776.00
2019-04-25T07:47:07.029Z,54464.00
2019-04-25T07:48:07.056Z,60000.00
2019-04-25T07:49:07.083Z,53152.00
2019-04-25T07:50:07.117Z,63936.00
2019-04-25T07:51:07.148Z,60896.00
2019-04-25T07:52:07.183Z,61312.00
2019-04-25T07:53:07.205Z,71040.00
2019-04-25T07:54:07.240Z,51904.00
2019-04-25T07:55:07.271Z,57472.00
2019-04-25T07:56:07.302Z,56128.00
2019-04-25T07:57:07.331Z,62848.00
2019-04-25T07:58:07.372Z,58976.00
2019-04-25T07:59:07.714Z,43456.00
2019-04-25T08:00:07.431Z,38464.00
2019-04-25T08:01:07.458Z,51040.00
2019-04-25T08:02:07.500Z,67072.00
2019-04-25T08:03:10.555Z,63552.00
2019-04-25T08:11:08.290Z,18880.00
2019-04-25T08:24:08.193Z,36768.00
2019-04-25T08:25:08.222Z,31872.00
2019-04-25T08:26:08.254Z,37632.00
2019-04-25T08:27:08.291Z,45536.00
2019-04-25T08:28:08.315Z,23168.00
2019-04-25T08:29:08.343Z,12528.00
2019-04-25T08:31:08.399Z,10168.00
2019-04-25T08:32:08.438Z,9928.00
2019-04-25T08:33:08.460Z,10068.00
2019-04-25T08:34:08.550Z,10948.00
2019-04-25T08:35:08.521Z,12408.00
2019-04-25T08:36:09.392Z,14760.00
2019-04-25T08:37:18.200Z,20480.00
2019-04-25T08:38:08.618Z,22784.00
2019-04-25T08:39:08.852Z,23200.00
2019-04-25T08:40:08.681Z,24992.00
2019-04-25T08:41:08.705Z,40288.00
2019-04-25T08:42:08.737Z,63200.00
2019-04-25T08:43:08.761Z,35680.00
2019-04-25T08:44:08.794Z,41024.00
2019-04-25T08:45:08.821Z,38336.00
2019-04-25T08:46:08.856Z,62304.00
2019-04-25T08:47:08.885Z,67840.00
2019-04-25T08:48:08.913Z,66784.00
2019-04-25T08:49:08.940Z,70944.00
2019-04-25T08:50:08.978Z,68320.00
2019-04-25T08:51:09.009Z,63008.00
2019-04-25T08:52:09.038Z,69888.00
2019-04-25T08:53:09.067Z,75136.00
2019-04-25T08:54:09.094Z,79296.00
2019-04-25T08:55:09.123Z,74592.00
2019-04-25T08:56:09.159Z,65888.00
2019-04-25T08:57:09.184Z,63520.00
2019-04-25T08:58:09.221Z,71200.00
2019-04-25T08:59:09.250Z,84832.00
2019-04-25T09:00:09.281Z,89408.00
2019-04-25T09:01:09.313Z,71712.00
2019-04-25T09:02:09.350Z,85824.00
2019-04-25T09:03:09.372Z,85792.00
2019-04-25T09:04:09.404Z,99936.00
2019-04-25T09:05:09.437Z,99520.00
2019-04-25T09:06:09.472Z,89856.00
2019-04-25T09:07:52.058Z,68576.00
2019-04-25T09:08:53.929Z,63776.00
2019-04-25T09:09:53.499Z,50976.00
2019-04-25T09:10:53.485Z,54144.00
2019-04-25T09:11:52.189Z,75136.00
2019-04-25T09:12:53.755Z,37184.00
2019-04-25T09:13:53.772Z,24864.00
2019-04-25T09:14:54.086Z,27072.00
2019-04-25T09:15:53.909Z,24992.00
2019-04-25T09:16:53.350Z,25824.00
2019-04-25T09:17:54.295Z,23488.00
2019-04-25T09:18:53.942Z,24000.00
2019-04-25T09:19:54.037Z,22784.00
2019-04-25T09:20:53.992Z,23392.00
2019-04-25T09:21:53.367Z,17248.00
2019-04-25T09:22:54.214Z,15496.00
2019-04-25T09:23:53.576Z,13332.00
2019-04-25T09:25:54.332Z,10968.00
2019-04-25T09:26:54.070Z,10388.00
2019-04-25T09:27:54.380Z,10352.00
2019-04-25T09:28:53.709Z,10448.00
2019-04-25T09:29:54.213Z,11016.00
2019-04-25T09:30:53.981Z,10760.00
2019-04-25T09:31:53.717Z,10384.00
2019-04-25T09:32:53.432Z,11820.00
2019-04-25T09:33:54.179Z,12544.00
2019-04-25T09:34:55.577Z,11696.00
2019-04-25T09:35:54.068Z,10428.00
2019-04-25T09:36:53.591Z,9104.00
2019-04-25T09:37:53.583Z,8364.00
2019-04-25T09:38:53.859Z,8364.00
2019-04-25T09:39:53.773Z,8468.00
2019-04-25T09:40:54.156Z,8848.00
2019-04-25T09:41:53.594Z,9672.00
2019-04-25T09:42:53.737Z,10700.00
2019-04-25T09:43:54.863Z,12044.00
2019-04-25T09:44:53.751Z,13224.00
2019-04-25T09:45:53.359Z,13928.00
2019-04-25T09:46:53.684Z,15076.00
2019-04-25T09:47:53.413Z,15700.00
2019-04-25T09:48:54.277Z,14208.00
2019-04-25T09:49:53.851Z,11640.00
2019-04-25T09:50:53.492Z,9452.00
2019-04-25T09:51:53.568Z,9540.00
2019-04-25T09:52:53.929Z,11108.00
2019-04-25T09:53:54.169Z,12792.00
2019-04-25T09:54:53.614Z,13472.00
2019-04-25T09:55:54.233Z,14020.00
2019-04-25T09:56:55.312Z,14880.00
2019-04-25T09:57:53.618Z,16084.00
2019-04-25T09:58:53.991Z,17312.00
2019-04-25T09:59:53.679Z,18720.00
2019-04-25T10:00:53.704Z,20608.00
2019-04-25T10:01:53.731Z,20000.00
2019-04-25T10:02:55.328Z,18336.00
2019-04-25T10:03:54.360Z,22208.00
2019-04-25T10:04:55.154Z,25728.00
2019-04-25T10:05:53.852Z,22048.00
2019-04-25T10:06:53.879Z,14080.00
2019-04-25T10:07:53.909Z,12168.00
2019-04-25T10:08:54.346Z,11756.00
2019-04-25T10:09:54.744Z,12180.00
2019-04-25T10:10:55.457Z,12836.00
2019-04-25T10:11:54.686Z,12404.00
2019-04-25T10:12:54.895Z,11604.00
2019-04-25T10:13:54.088Z,11856.00
2019-04-25T10:14:54.302Z,11648.00
2019-04-25T10:15:54.597Z,10400.00
2019-04-25T10:16:54.179Z,9168.00
2019-04-25T10:17:54.207Z,8408.00
2019-04-25T10:18:54.238Z,7768.00
2019-04-25T10:19:54.265Z,6952.00
2019-04-25T10:20:54.347Z,6084.00
2019-04-25T10:21:55.274Z,5528.00
2019-04-25T10:22:54.353Z,5224.00
2019-04-25T10:23:54.380Z,4972.00
2019-04-25T10:25:00.312Z,4732.00
2019-04-25T10:25:54.438Z,4760.00
2019-04-25T10:26:54.775Z,5064.00
2019-04-25T10:27:54.501Z,5340.00
2019-04-25T10:28:54.525Z,5492.00
2019-04-25T10:29:57.201Z,5460.00
2019-04-25T10:30:55.582Z,5416.00
2019-04-25T10:31:55.820Z,5556.00
2019-04-25T10:32:54.817Z,5912.00
2019-04-25T10:33:54.677Z,6236.00
2019-04-25T10:34:54.700Z,6548.00
2019-04-25T10:35:59.531Z,6780.00
2019-04-25T10:36:54.764Z,6592.00
2019-04-25T10:37:55.077Z,6380.00
2019-04-25T10:39:07.557Z,6096.00
2019-04-25T10:39:55.684Z,6148.00
2019-04-25T10:40:54.881Z,6440.00
2019-04-25T10:41:54.906Z,6680.00
2019-04-25T10:42:54.938Z,7360.00
2019-04-25T10:43:56.174Z,8580.00
2019-04-25T10:44:56.660Z,9696.00
2019-04-25T10:45:55.207Z,10084.00
2019-04-25T10:46:55.051Z,11336.00
2019-04-25T10:47:56.431Z,13644.00
2019-04-25T10:48:56.228Z,16460.00
2019-04-25T10:49:55.450Z,18432.00
2019-04-25T10:50:55.708Z,16180.00
2019-04-25T10:51:55.199Z,14264.00
2019-04-25T10:52:55.226Z,13880.00
2019-04-25T10:53:55.256Z,14636.00
2019-04-25T10:54:55.285Z,16060.00
2019-04-25T10:55:55.310Z,18720.00
2019-04-25T10:56:55.337Z,22752.00
2019-04-25T10:57:56.369Z,25760.00
2019-04-25T10:58:55.397Z,25344.00
2019-04-25T11:00:06.234Z,25408.00
2019-04-25T11:00:55.456Z,34976.00
2019-04-25T11:01:55.487Z,63104.00
2019-04-25T11:02:55.513Z,92224.00
2019-04-25T11:03:55.770Z,86176.00
2019-04-25T11:04:55.578Z,77344.00
2019-04-25T11:05:55.964Z,76672.00
2019-04-25T11:06:55.637Z,82528.00
2019-04-25T11:07:55.941Z,59904.00
2019-04-25T11:08:56.635Z,57120.00
2019-04-25T11:09:55.728Z,75264.00
2019-04-25T11:10:55.756Z,96032.00
2019-04-25T11:11:55.784Z,99040.00
2019-04-25T11:12:55.816Z,95872.00
2019-04-25T11:13:55.852Z,94176.00
2019-04-25T11:14:56.301Z,92000.00
2019-04-25T11:15:57.135Z,91008.00
2019-04-25T11:16:56.466Z,76672.00
2019-04-25T11:17:55.979Z,91616.00
2019-04-25T11:18:56.011Z,89536.00
2019-04-25T11:19:56.039Z,87360.00
2019-04-25T11:20:56.320Z,88576.00
2019-04-25T11:21:56.106Z,86560.00
2019-04-25T11:22:56.136Z,85440.00
2019-04-25T11:23:56.174Z,86848.00
2019-04-25T11:24:56.199Z,89152.00
2019-04-25T11:25:56.240Z,86560.00
2019-04-25T11:26:56.266Z,87424.00
2019-04-25T11:27:56.300Z,88544.00
2019-04-25T11:28:56.492Z,93856.00
2019-04-25T11:30:08.400Z,26816.00
2019-04-25T11:30:56.955Z,79040.00
2019-04-25T11:31:56.462Z,75872.00
2019-04-25T11:32:56.477Z,76416.00
2019-04-25T11:33:56.512Z,76128.00
2019-04-25T12:01:29.147Z,10772.00
2019-04-25T12:02:29.187Z,11828.00
2019-04-25T12:03:29.213Z,10020.00
2019-04-25T12:04:29.246Z,8068.00
2019-04-25T12:05:29.275Z,8404.00
2019-04-25T12:06:29.317Z,9140.00
2019-04-25T12:07:29.341Z,9680.00
2019-04-25T12:08:29.374Z,9532.00
2019-04-25T12:09:29.403Z,9084.00
2019-04-25T12:10:29.436Z,9144.00
2019-04-25T12:11:29.511Z,9772.00
2019-04-25T12:12:29.579Z,9536.00
2019-04-25T12:13:29.533Z,8628.00
2019-04-25T12:14:29.555Z,7968.00
2019-04-25T12:15:29.587Z,7584.00
2019-04-25T12:16:29.620Z,7016.00
2019-04-25T12:17:29.653Z,6736.00
2019-04-25T12:18:29.679Z,6824.00
2019-04-25T12:19:35.880Z,6820.00
2019-04-25T12:20:29.740Z,7092.00
2019-04-25T12:21:29.772Z,7088.00
2019-04-25T12:22:29.858Z,6872.00
2019-04-25T12:23:29.879Z,6556.00
2019-04-25T12:24:29.865Z,6236.00
2019-04-25T12:25:29.895Z,6132.00
2019-04-25T12:26:29.934Z,6612.00
2019-04-25T12:27:29.961Z,7264.00
2019-04-25T12:28:29.992Z,7800.00
2019-04-25T12:29:30.022Z,8724.00
2019-04-25T12:30:38.137Z,10056.00
2019-04-25T12:31:30.080Z,12272.00
2019-04-25T12:32:30.109Z,15924.00
2019-04-25T12:33:30.146Z,14500.00
2019-04-25T12:34:30.176Z,11348.00
2019-04-25T12:35:30.209Z,9420.00
2019-04-25T12:36:30.238Z,8132.00
2019-04-25T12:37:30.262Z,7160.00
2019-04-25T12:38:30.294Z,6856.00
2019-04-25T12:39:30.327Z,7316.00
2019-04-25T12:40:30.351Z,8628.00
2019-04-25T12:41:30.384Z,11068.00
2019-04-25T12:42:30.413Z,12920.00
2019-04-25T12:43:30.439Z,13360.00
2019-04-25T12:44:30.473Z,15280.00
2019-04-25T12:45:30.506Z,12764.00
2019-04-25T12:46:30.531Z,18208.00
2019-04-25T12:47:30.563Z,17408.00
2019-04-25T12:48:30.618Z,16256.00
2019-04-25T12:49:30.628Z,15592.00
2019-04-25T12:50:30.656Z,15368.00
2019-04-25T12:51:30.682Z,15852.00
2019-04-25T12:52:30.725Z,16876.00
2019-04-25T12:53:30.746Z,17376.00
2019-04-25T12:54:30.774Z,17600.00
2019-04-25T12:55:30.814Z,18496.00
2019-04-25T12:56:30.836Z,20064.00
2019-04-25T12:57:30.867Z,22272.00
2019-04-25T12:58:30.901Z,24096.00
2019-04-25T12:59:30.931Z,24256.00
2019-04-25T13:00:30.963Z,20224.00
2019-04-25T13:01:30.998Z,12472.00
2019-04-25T13:02:33.781Z,11476.00
2019-04-25T13:03:31.159Z,13404.00
2019-04-25T13:04:31.296Z,20576.00
2019-04-25T13:05:31.124Z,18240.00
2019-04-25T13:06:31.156Z,28896.00
2019-04-25T13:07:31.187Z,28128.00
2019-04-25T13:08:31.226Z,28448.00
2019-04-25T13:09:31.257Z,29088.00
2019-04-25T13:10:31.293Z,33376.00
2019-04-25T13:11:31.323Z,42272.00
2019-04-25T13:12:31.350Z,46848.00
2019-04-25T13:13:31.386Z,49664.00
2019-04-25T13:14:31.420Z,49088.00
2019-04-25T13:15:31.446Z,48672.00
2019-04-25T13:16:31.478Z,45344.00